createdAt,value
2023-05-01T00:01:38.234Z,8.00
2023-05-01T00:04:06.264Z,9.20
2023-05-01T00:06:34.251Z,9.10
2023-05-01T00:09:02.928Z,8.60
2023-05-01T00:11:30.705Z,6.90
2023-05-01T00:13:58.689Z,8.40
2023-05-01T00:16:26.460Z,8.10
2023-05-01T00:18:55.153Z,7.40
2023-05-01T00:21:22.899Z,7.80
2023-05-01T00:23:50.639Z,8.10
2023-05-01T00:26:18.452Z,7.80
2023-05-01T00:28:47.793Z,7.10
2023-05-01T00:31:15.635Z,6.60
2023-05-01T00:33:43.509Z,6.90
2023-05-01T00:36:11.500Z,7.50
2023-05-01T00:38:39.524Z,6.40
2023-05-01T00:41:07.393Z,6.20
2023-05-01T00:43:36.412Z,6.20
2023-05-01T00:46:04.561Z,7.40
2023-05-01T00:48:32.426Z,7.70
2023-05-01T00:51:01.122Z,7.10
2023-05-01T00:53:29.473Z,6.80
2023-05-01T00:55:58.704Z,6.90
2023-05-01T00:58:26.812Z,7.20
2023-05-01T01:00:55.412Z,6.50
2023-05-01T01:03:23.183Z,7.20
2023-05-01T01:06:13.844Z,7.30
2023-05-01T01:09:09.903Z,6.90
2023-05-01T01:11:44.489Z,6.80
2023-05-01T01:14:20.647Z,7.70
2023-05-01T01:16:59.418Z,7.20
2023-05-01T01:19:45.561Z,7.40
2023-05-01T01:22:19.909Z,7.10
2023-05-01T01:25:11.185Z,8.00
2023-05-01T01:28:13.437Z,6.70
2023-05-01T01:31:05.134Z,7.80
2023-05-01T01:33:45.223Z,7.40
2023-05-01T01:36:20.341Z,6.10
2023-05-01T01:39:09.185Z,7.00
2023-05-01T01:41:38.593Z,5.60
2023-05-01T01:44:17.675Z,6.10
2023-05-01T01:46:45.957Z,5.90
2023-05-01T01:49:23.314Z,6.10
2023-05-01T01:51:53.846Z,6.10
2023-05-01T01:54:31.455Z,5.70
2023-05-01T01:57:02.631Z,6.20
2023-05-01T01:59:33.635Z,5.60
2023-05-01T02:02:03.965Z,5.80
2023-05-01T02:04:32.976Z,6.10
2023-05-01T02:07:01.389Z,6.10
2023-05-01T02:09:30.722Z,6.90
2023-05-01T02:12:00.323Z,6.00
2023-05-01T02:16:58.756Z,7.20
2023-05-01T02:19:27.191Z,9.50
2023-05-01T02:21:57.680Z,8.90
2023-05-01T02:24:28.609Z,8.10
2023-05-01T02:27:06.622Z,6.70
2023-05-01T02:29:35.225Z,6.20
2023-05-01T02:32:03.766Z,5.50
2023-05-01T02:34:34.838Z,5.60
2023-05-01T02:37:06.355Z,6.40
2023-05-01T02:39:35.143Z,5.40
2023-05-01T02:42:04.566Z,6.60
2023-05-01T02:44:39.954Z,5.80
2023-05-01T02:47:09.311Z,6.40
2023-05-01T02:49:39.402Z,5.50
2023-05-01T02:52:07.553Z,5.50
2023-05-01T02:54:35.993Z,5.70
2023-05-01T02:57:05.424Z,6.20
2023-05-01T02:59:33.979Z,5.60
2023-05-01T03:02:02.027Z,5.50
2023-05-01T03:04:30.076Z,4.90
2023-05-01T03:06:57.969Z,5.40
2023-05-01T03:09:26.379Z,5.50
2023-05-01T03:11:54.309Z,4.80
2023-05-01T03:14:22.320Z,4.50
2023-05-01T03:16:50.166Z,4.70
2023-05-01T03:19:17.922Z,4.40
2023-05-01T03:21:45.838Z,4.70
2023-05-01T03:24:13.579Z,4.80
2023-05-01T03:26:41.320Z,4.90
2023-05-01T03:29:09.996Z,4.30
2023-05-01T03:31:38.005Z,5.20
2023-05-01T03:34:06.469Z,3.90
2023-05-01T03:36:34.487Z,4.30
2023-05-01T03:39:02.391Z,5.30
2023-05-01T03:42:08.759Z,4.50
2023-05-01T03:44:41.457Z,5.30
2023-05-01T03:47:10.358Z,4.40
2023-05-01T03:49:43.642Z,5.00
2023-05-01T03:52:12.814Z,5.80
2023-05-01T03:54:40.801Z,5.00
2023-05-01T03:57:28.955Z,4.80
2023-05-01T03:59:59.219Z,4.30
2023-05-01T04:04:56.181Z,5.10
2023-05-01T04:07:24.731Z,4.40
2023-05-01T04:09:52.683Z,4.10
2023-05-01T04:12:20.612Z,4.90
2023-05-01T04:14:48.346Z,4.60
2023-05-01T04:17:16.352Z,4.80
2023-05-01T04:19:44.414Z,3.90
2023-05-01T04:22:12.148Z,4.70
2023-05-01T04:24:40.876Z,5.10
2023-05-01T04:27:09.840Z,4.90
2023-05-01T04:29:37.723Z,5.30
2023-05-01T04:32:05.852Z,5.60
2023-05-01T04:34:33.817Z,4.40
2023-05-01T04:37:03.095Z,4.30
2023-05-01T04:39:31.074Z,3.40
2023-05-01T04:41:59.203Z,3.10
2023-05-01T04:44:27.304Z,3.10
2023-05-01T04:46:55.410Z,4.00
2023-05-01T04:49:23.483Z,3.70
2023-05-01T04:51:51.210Z,3.40
2023-05-01T04:54:19.442Z,4.20
2023-05-01T04:56:47.558Z,2.50
2023-05-01T04:59:15.534Z,3.00
2023-05-01T05:01:43.678Z,3.10
2023-05-01T05:04:11.735Z,2.70
2023-05-01T05:06:39.940Z,2.80
2023-05-01T05:09:11.211Z,3.00
2023-05-01T05:11:39.095Z,3.60
2023-05-01T05:14:11.889Z,3.00
2023-05-01T05:16:39.964Z,2.70
2023-05-01T05:19:07.741Z,3.00
2023-05-01T05:21:38.225Z,3.10
2023-05-01T05:24:06.134Z,2.40
2023-05-01T05:26:33.993Z,2.70
2023-05-01T05:29:04.236Z,2.60
2023-05-01T05:31:32.129Z,2.80
2023-05-01T05:34:00.518Z,2.50
2023-05-01T05:36:28.864Z,3.60
2023-05-01T05:38:59.424Z,2.60
2023-05-01T05:41:27.230Z,2.60
2023-05-01T05:43:58.643Z,2.00
2023-05-01T05:46:26.857Z,2.30
2023-05-01T05:48:54.766Z,1.90
2023-05-01T05:51:23.016Z,2.30
2023-05-01T05:53:50.990Z,1.90
2023-05-01T05:56:19.377Z,2.10
2023-05-01T05:58:47.244Z,1.90
2023-05-01T06:01:16.725Z,2.70
2023-05-01T06:03:44.759Z,1.80
2023-05-01T06:06:13.219Z,2.10
2023-05-01T06:08:41.102Z,1.80
2023-05-01T06:11:11.653Z,1.60
2023-05-01T06:13:39.477Z,2.00
2023-05-01T06:16:07.867Z,1.80
2023-05-01T06:18:35.699Z,1.60
2023-05-01T06:21:03.776Z,1.60
2023-05-01T06:23:34.159Z,1.90
2023-05-01T06:26:21.714Z,1.60
2023-05-01T06:28:49.718Z,1.50
2023-05-01T06:31:17.491Z,1.60
2023-05-01T06:33:49.774Z,1.80
2023-05-01T06:36:23.693Z,2.20
2023-05-01T06:38:51.453Z,1.50
2023-05-01T06:41:19.550Z,1.80
2023-05-01T06:43:47.445Z,1.70
2023-05-01T06:46:17.196Z,1.50
2023-05-01T06:48:45.340Z,1.50
2023-05-01T06:51:16.336Z,1.40
2023-05-01T06:53:44.107Z,1.80
2023-05-01T06:56:11.925Z,1.70
2023-05-01T06:58:40.336Z,1.90
2023-05-01T07:01:09.954Z,1.30
2023-05-01T07:03:38.883Z,2.00
2023-05-01T07:06:07.297Z,2.20
2023-05-01T07:08:35.263Z,1.80
2023-05-01T07:11:03.193Z,1.80
2023-05-01T07:13:31.055Z,1.60
2023-05-01T07:15:58.919Z,1.90
2023-05-01T07:18:26.807Z,1.70
2023-05-01T07:20:55.026Z,1.80
2023-05-01T07:23:23.768Z,2.10
2023-05-01T07:25:52.951Z,1.60
2023-05-01T07:28:21.864Z,2.40
2023-05-01T07:30:49.940Z,1.60
2023-05-01T07:33:17.740Z,2.20
2023-05-01T07:35:45.671Z,1.90
2023-05-01T07:38:15.992Z,1.80
2023-05-01T07:40:44.155Z,1.50
2023-05-01T07:43:12.031Z,1.60
2023-05-01T07:45:42.493Z,2.20
2023-05-01T07:48:11.852Z,1.20
2023-05-01T07:50:40.530Z,1.50
2023-05-01T07:53:08.437Z,1.30
2023-05-01T07:55:36.296Z,1.60
2023-05-01T07:58:04.094Z,1.20
2023-05-01T08:00:32.029Z,1.50
2023-05-01T08:02:59.803Z,2.50
2023-05-01T08:05:27.698Z,1.90
2023-05-01T08:07:55.644Z,1.90
2023-05-01T08:10:23.579Z,1.90
2023-05-01T08:12:51.434Z,1.30
2023-05-01T08:15:20.108Z,1.60
2023-05-01T08:17:48.139Z,2.00
2023-05-01T08:20:15.896Z,1.50
2023-05-01T08:22:43.697Z,1.70
2023-05-01T08:25:11.458Z,1.80
2023-05-01T08:27:39.760Z,1.20
2023-05-01T08:30:08.163Z,1.50
2023-05-01T08:32:35.950Z,2.30
2023-05-01T08:35:04.081Z,1.80
2023-05-01T08:37:31.893Z,1.50
2023-05-01T08:39:59.680Z,1.80
2023-05-01T08:42:30.407Z,1.90
2023-05-01T08:45:01.144Z,1.70
2023-05-01T08:47:30.500Z,1.60
2023-05-01T08:52:29.010Z,1.30
2023-05-01T08:54:57.542Z,1.30
2023-05-01T08:57:26.493Z,1.50
2023-05-01T08:59:56.591Z,1.80
2023-05-01T09:02:25.572Z,2.00
2023-05-01T09:04:54.244Z,1.60
2023-05-01T09:07:22.459Z,2.00
2023-05-01T09:09:50.427Z,2.10
2023-05-01T09:12:26.005Z,2.30
2023-05-01T09:14:54.979Z,1.60
2023-05-01T09:17:24.177Z,1.80
2023-05-01T09:19:52.638Z,1.60
2023-05-01T09:22:21.332Z,1.80
2023-05-01T09:24:49.338Z,1.90
2023-05-01T09:27:17.112Z,1.70
2023-05-01T09:29:45.924Z,1.50
2023-05-01T09:32:20.885Z,2.10
2023-05-01T09:37:29.279Z,1.40
2023-05-01T09:40:14.128Z,1.00
2023-05-01T09:42:51.652Z,1.50
2023-05-01T09:45:19.735Z,1.50
2023-05-01T09:47:48.762Z,1.20
2023-05-01T09:50:34.362Z,1.40
2023-05-01T09:53:05.094Z,1.80
2023-05-01T09:55:33.874Z,1.50
2023-05-01T09:58:02.224Z,1.70
2023-05-01T10:00:30.339Z,2.30
2023-05-01T10:02:58.554Z,1.40
2023-05-01T10:05:27.047Z,1.20
2023-05-01T10:08:03.807Z,1.60
2023-05-01T10:10:31.730Z,1.30
2023-05-01T10:13:15.415Z,1.50
2023-05-01T10:15:44.530Z,1.50
2023-05-01T10:18:14.377Z,6.50
2023-05-01T10:20:42.769Z,2.20
2023-05-01T10:23:11.350Z,1.90
2023-05-01T10:25:42.354Z,1.70
2023-05-01T10:28:11.894Z,1.40
2023-05-01T10:30:41.642Z,1.30
2023-05-01T10:33:12.685Z,1.10
2023-05-01T10:35:44.299Z,1.50
2023-05-01T10:38:19.947Z,1.90
2023-05-01T10:40:51.677Z,2.40
2023-05-01T10:43:30.648Z,1.40
2023-05-01T10:46:07.782Z,1.20
2023-05-01T10:48:38.895Z,2.00
2023-05-01T10:51:22.419Z,2.60
2023-05-01T10:54:21.305Z,1.40
2023-05-01T10:56:49.227Z,1.80
2023-05-01T10:59:17.112Z,1.30
2023-05-01T11:01:47.697Z,1.40
2023-05-01T11:04:27.445Z,1.30
2023-05-01T11:06:58.338Z,1.30
2023-05-01T11:09:43.709Z,1.40
2023-05-01T11:12:13.250Z,1.80
2023-05-01T11:15:08.034Z,1.80
2023-05-01T11:17:42.322Z,1.60
2023-05-01T11:20:34.654Z,1.60
2023-05-01T11:23:02.450Z,1.70
2023-05-01T11:25:31.734Z,1.80
2023-05-01T11:28:01.953Z,1.60
2023-05-01T11:30:40.204Z,1.30
2023-05-01T11:33:10.395Z,1.60
2023-05-01T11:35:39.197Z,1.60
2023-05-01T11:38:17.057Z,1.00
2023-05-01T11:40:46.071Z,1.40
2023-05-01T11:45:41.652Z,1.40
2023-05-01T11:48:18.595Z,1.90
2023-05-01T11:50:46.463Z,1.50
2023-05-01T11:53:18.704Z,1.50
2023-05-01T11:55:46.676Z,1.30
2023-05-01T11:58:15.868Z,1.50
2023-05-01T12:00:46.107Z,1.70
2023-05-01T12:03:15.657Z,1.30
2023-05-01T12:05:45.373Z,1.90
2023-05-01T12:08:19.616Z,1.70
2023-05-01T12:10:52.704Z,1.50
2023-05-01T12:13:21.952Z,1.40
2023-05-01T12:15:51.838Z,1.70
2023-05-01T12:18:24.020Z,1.80
2023-05-01T12:20:54.303Z,1.60
2023-05-01T12:23:39.540Z,1.30
2023-05-01T12:26:18.248Z,1.40
2023-05-01T12:29:06.782Z,1.40
2023-05-01T12:31:36.788Z,1.70
2023-05-01T12:34:07.765Z,2.30
2023-05-01T12:36:36.732Z,1.50
2023-05-01T12:39:07.245Z,1.20
2023-05-01T12:41:43.049Z,1.80
2023-05-01T12:44:16.967Z,2.10
2023-05-01T12:46:47.614Z,1.40
2023-05-01T12:49:20.647Z,1.50
2023-05-01T12:51:54.238Z,1.30
2023-05-01T12:54:28.550Z,1.80
2023-05-01T12:57:15.517Z,1.60
2023-05-01T12:59:45.404Z,1.00
2023-05-01T13:02:16.294Z,1.90
2023-05-01T13:04:46.445Z,1.80
2023-05-01T13:07:20.706Z,1.40
2023-05-01T13:09:54.394Z,1.60
2023-05-01T13:12:22.844Z,1.50
2023-05-01T13:14:53.612Z,1.50
2023-05-01T13:17:26.946Z,1.20
2023-05-01T13:20:00.627Z,1.70
2023-05-01T13:22:33.110Z,1.70
2023-05-01T13:25:03.909Z,1.10
2023-05-01T13:27:32.716Z,1.60
2023-05-01T13:30:01.177Z,1.30
2023-05-01T13:32:29.300Z,1.00
2023-05-01T13:35:03.409Z,1.50
2023-05-01T13:37:32.627Z,1.20
2023-05-01T13:40:00.556Z,1.10
2023-05-01T13:42:28.549Z,1.20
2023-05-01T13:44:57.561Z,1.50
2023-05-01T13:47:27.513Z,1.30
2023-05-01T13:49:55.939Z,1.40
2023-05-01T13:52:24.522Z,1.50
2023-05-01T13:54:55.895Z,2.60
2023-05-01T13:57:23.872Z,2.20
2023-05-01T13:59:51.645Z,21.10
2023-05-01T14:02:29.884Z,4.50
2023-05-01T14:05:00.143Z,3.10
2023-05-01T14:07:28.889Z,3.70
2023-05-01T14:09:58.493Z,1.80
2023-05-01T14:12:32.690Z,1.30
2023-05-01T14:15:02.126Z,1.40
2023-05-01T14:17:31.849Z,1.30
2023-05-01T14:19:59.735Z,24.00
2023-05-01T14:22:48.106Z,2.50
2023-05-01T14:25:31.301Z,1.60
2023-05-01T14:28:01.165Z,1.90
2023-05-01T14:30:34.125Z,1.40
2023-05-01T14:33:03.577Z,1.40
2023-05-01T14:35:31.601Z,2.60
2023-05-01T14:38:11.658Z,1.70
2023-05-01T14:40:43.569Z,1.50
2023-05-01T14:43:16.005Z,1.60
2023-05-01T14:45:49.792Z,1.70
2023-05-01T14:48:23.249Z,1.20
2023-05-01T14:50:51.903Z,1.50
2023-05-01T14:53:19.694Z,1.40
2023-05-01T14:55:51.354Z,1.40
2023-05-01T14:58:19.129Z,1.10
2023-05-01T15:00:46.930Z,1.30
2023-05-01T15:03:14.941Z,1.10
2023-05-01T15:05:44.780Z,1.40
2023-05-01T15:08:12.533Z,1.50
2023-05-01T15:10:40.387Z,1.30
2023-05-01T15:13:08.473Z,1.20
2023-05-01T15:15:36.455Z,1.40
2023-05-01T15:18:04.330Z,1.40
2023-05-01T15:20:32.128Z,1.80
2023-05-01T15:22:59.920Z,1.20
2023-05-01T15:25:27.839Z,1.20
2023-05-01T15:27:55.765Z,1.80
2023-05-01T15:30:23.914Z,3.80
2023-05-01T15:32:52.034Z,5.30
2023-05-01T15:35:21.449Z,5.50
2023-05-01T15:37:50.164Z,5.90
2023-05-01T15:40:18.116Z,3.50
2023-05-01T15:42:48.121Z,2.80
2023-05-01T15:45:16.715Z,3.50
2023-05-01T15:47:44.710Z,2.80
2023-05-01T15:50:12.816Z,3.40
2023-05-01T15:52:42.258Z,3.20
2023-05-01T15:55:10.012Z,2.70
2023-05-01T15:57:37.941Z,1.90
2023-05-01T16:00:08.386Z,2.70
2023-05-01T16:02:36.467Z,2.10
2023-05-01T16:05:05.104Z,4.50
2023-05-01T16:07:34.174Z,5.80
2023-05-01T16:10:02.484Z,2.00
2023-05-01T16:12:31.181Z,2.00
2023-05-01T16:15:02.293Z,2.20
2023-05-01T16:17:33.472Z,13.70
2023-05-01T16:20:02.609Z,3.70
2023-05-01T16:22:32.740Z,1.80
2023-05-01T16:25:01.309Z,2.70
2023-05-01T16:27:29.093Z,10.00
2023-05-01T16:29:57.845Z,6.10
2023-05-01T16:32:26.675Z,2.30
2023-05-01T16:34:54.536Z,1.70
2023-05-01T16:37:25.492Z,1.30
2023-05-01T16:39:53.280Z,1.50
2023-05-01T16:42:21.290Z,1.20
2023-05-01T16:44:49.321Z,1.50
2023-05-01T16:47:17.546Z,1.70
2023-05-01T16:49:46.631Z,1.60
2023-05-01T16:52:15.787Z,1.40
2023-05-01T16:54:43.515Z,1.20
2023-05-01T16:57:11.308Z,1.40
2023-05-01T16:59:39.111Z,1.60
2023-05-01T17:02:06.973Z,1.40
2023-05-01T17:04:34.816Z,1.50
2023-05-01T17:07:02.846Z,1.60
2023-05-01T17:09:31.220Z,1.60
2023-05-01T17:11:59.246Z,1.70
2023-05-01T17:14:29.026Z,1.60
2023-05-01T17:17:00.037Z,1.00
2023-05-01T17:19:28.092Z,1.40
2023-05-01T17:21:57.976Z,1.40
2023-05-01T17:24:27.093Z,1.30
2023-05-01T17:26:55.538Z,1.50
2023-05-01T17:29:24.094Z,1.20
2023-05-01T17:31:51.891Z,1.70
2023-05-01T17:34:19.841Z,1.50
2023-05-01T17:36:47.852Z,1.80
2023-05-01T17:39:16.205Z,1.50
2023-05-01T17:41:44.291Z,1.90
2023-05-01T17:44:12.043Z,1.60
2023-05-01T17:46:39.818Z,1.40
2023-05-01T17:49:07.765Z,1.50
2023-05-01T17:51:35.950Z,1.90
2023-05-01T17:54:03.822Z,1.80
2023-05-01T17:56:31.684Z,1.50
2023-05-01T17:59:00.059Z,1.50
2023-05-01T18:01:29.376Z,1.50
2023-05-01T18:03:57.673Z,2.20
2023-05-01T18:06:25.729Z,1.90
2023-05-01T18:08:53.683Z,2.00
2023-05-01T18:11:21.478Z,2.20
2023-05-01T18:13:49.342Z,2.30
2023-05-01T18:16:19.075Z,2.30
2023-05-01T18:18:49.978Z,2.40
2023-05-01T18:21:17.825Z,2.30
2023-05-01T18:23:48.481Z,2.10
2023-05-01T18:26:16.911Z,2.20
2023-05-01T18:28:44.887Z,1.50
2023-05-01T18:31:14.276Z,2.70
2023-05-01T18:33:42.303Z,2.40
2023-05-01T18:36:10.682Z,2.00
2023-05-01T18:38:38.654Z,1.90
2023-05-01T18:41:06.845Z,2.10
2023-05-01T18:43:34.874Z,1.40
2023-05-01T18:46:02.785Z,1.80
2023-05-01T18:48:31.094Z,2.10
2023-05-01T18:51:08.461Z,1.60
2023-05-01T18:53:37.128Z,1.60
2023-05-01T18:56:05.974Z,2.60
2023-05-01T18:58:33.781Z,2.00
2023-05-01T19:01:01.501Z,1.80
2023-05-01T19:03:29.279Z,1.70
2023-05-01T19:05:57.094Z,1.80
2023-05-01T19:08:24.878Z,2.30
2023-05-01T19:10:53.091Z,2.10
2023-05-01T19:13:20.775Z,2.40
2023-05-01T19:15:48.542Z,2.40
2023-05-01T19:18:16.876Z,2.20
2023-05-01T19:20:45.861Z,2.30
2023-05-01T19:23:13.670Z,2.50
2023-05-01T19:25:41.523Z,2.20
2023-05-01T19:28:09.393Z,2.50
2023-05-01T19:30:38.360Z,2.70
2023-05-01T19:33:06.895Z,2.70
2023-05-01T19:35:35.405Z,2.80
2023-05-01T19:38:03.159Z,3.00
2023-05-01T19:40:31.783Z,3.30
2023-05-01T19:42:59.651Z,2.60
2023-05-01T19:45:27.912Z,3.90
2023-05-01T19:47:55.910Z,2.70
2023-05-01T19:50:23.722Z,2.80
2023-05-01T19:52:51.526Z,3.30
2023-05-01T19:55:19.327Z,3.70
2023-05-01T19:57:47.099Z,3.40
2023-05-01T20:00:15.027Z,3.00
2023-05-01T20:02:42.961Z,3.60
2023-05-01T20:05:12.964Z,3.80
2023-05-01T20:07:41.345Z,4.00
2023-05-01T20:10:09.770Z,4.10
2023-05-01T20:12:38.315Z,2.70
2023-05-01T20:15:06.534Z,3.50
2023-05-01T20:17:35.289Z,3.20
2023-05-01T20:20:03.890Z,3.30
2023-05-01T20:22:31.652Z,3.80
2023-05-01T20:24:59.400Z,3.70
2023-05-01T20:27:27.474Z,3.10
2023-05-01T20:29:55.270Z,3.70
2023-05-01T20:32:23.089Z,3.00
2023-05-01T20:34:52.536Z,3.40
2023-05-01T20:39:48.584Z,2.80
2023-05-01T20:42:16.564Z,3.60
2023-05-01T20:44:44.868Z,2.80
2023-05-01T20:47:14.252Z,2.70
2023-05-01T20:52:10.152Z,2.80
2023-05-01T20:54:37.974Z,3.10
2023-05-01T20:57:05.778Z,3.30
2023-05-01T20:59:34.132Z,2.90
2023-05-01T21:02:05.649Z,3.00
2023-05-01T21:04:33.575Z,3.70
2023-05-01T21:07:01.334Z,3.10
2023-05-01T21:09:29.216Z,3.20
2023-05-01T21:11:56.952Z,2.90
2023-05-01T21:14:24.795Z,3.00
2023-05-01T21:16:53.609Z,3.40
2023-05-01T21:19:21.604Z,3.10
2023-05-01T21:21:49.881Z,3.40
2023-05-01T21:24:25.703Z,2.90
2023-05-01T21:26:54.580Z,2.70
2023-05-01T21:29:22.495Z,2.90
2023-05-01T21:31:50.277Z,2.40
2023-05-01T21:34:18.841Z,2.40
2023-05-01T21:36:46.667Z,2.40
2023-05-01T21:39:15.690Z,2.70
2023-05-01T21:41:43.506Z,2.10
2023-05-01T21:44:12.309Z,2.30
2023-05-01T21:46:41.668Z,2.60
2023-05-01T21:49:12.620Z,2.40
2023-05-01T21:51:40.963Z,2.60
2023-05-01T21:54:08.743Z,2.20
2023-05-01T21:56:36.517Z,2.60
2023-05-01T21:59:05.596Z,2.70
2023-05-01T22:01:33.361Z,2.20
2023-05-01T22:04:01.335Z,2.10
2023-05-01T22:06:29.735Z,2.50
2023-05-01T22:11:26.522Z,2.10
2023-05-01T22:13:54.259Z,2.00
2023-05-01T22:16:22.011Z,2.20
2023-05-01T22:18:50.554Z,2.60
2023-05-01T22:21:18.381Z,2.80
2023-05-01T22:23:46.123Z,2.50
2023-05-01T22:26:13.879Z,2.40
2023-05-01T22:28:42.186Z,2.10
2023-05-01T22:31:09.943Z,1.80
2023-05-01T22:33:37.660Z,2.50
2023-05-01T22:36:07.541Z,2.40
2023-05-01T22:38:36.064Z,2.40
2023-05-01T22:41:04.047Z,1.90
2023-05-01T22:43:31.795Z,2.40
2023-05-01T22:46:00.397Z,2.20
2023-05-01T22:48:28.296Z,2.30
2023-05-01T22:50:56.216Z,2.30
2023-05-01T22:53:24.178Z,2.40
2023-05-01T22:55:52.418Z,2.30
2023-05-01T22:58:20.382Z,2.50
2023-05-01T23:00:48.283Z,2.10
2023-05-01T23:03:16.273Z,2.40
2023-05-01T23:05:44.576Z,2.40
2023-05-01T23:08:12.693Z,2.80
2023-05-01T23:10:42.442Z,2.20
2023-05-01T23:13:22.593Z,2.30
2023-05-01T23:15:53.686Z,2.70
2023-05-01T23:18:30.061Z,2.60
2023-05-01T23:20:58.481Z,2.30
2023-05-01T23:23:32.713Z,3.00
2023-05-01T23:26:01.139Z,2.70
2023-05-01T23:28:31.826Z,3.10
2023-05-01T23:31:04.398Z,3.10
2023-05-01T23:33:35.740Z,2.90
2023-05-01T23:36:04.099Z,2.50
2023-05-01T23:38:31.800Z,3.00
2023-05-01T23:40:59.641Z,2.40
2023-05-01T23:43:27.555Z,2.70
2023-05-01T23:45:56.367Z,2.60
2023-05-01T23:48:24.104Z,2.70
2023-05-01T23:50:52.019Z,2.60
2023-05-01T23:53:20.276Z,2.40
2023-05-01T23:55:48.121Z,2.50
2023-05-01T23:58:16.794Z,2.70
